sensor_id;sensor_type;location;lat;lon;timestamp;P1;durP1;ratioP1;P2;durP2;ratioP2
4391;SDS011;2210;51.938;8.488;2022-10-16T00:02:19;4.23;;;3.67;;
4391;SDS011;2210;51.938;8.488;2022-10-16T00:06:20;6.60;;;3.17;;
4391;SDS011;2210;51.938;8.488;2022-10-16T00:10:22;5.20;;;3.33;;
4391;SDS011;2210;51.938;8.488;2022-10-16T00:14:22;5.10;;;4.10;;
4391;SDS011;2210;51.938;8.488;2022-10-16T00:18:23;5.20;;;3.37;;
4391;SDS011;2210;51.938;8.488;2022-10-16T00:22:24;5.30;;;3.27;;
4391;SDS011;2210;51.938;8.488;2022-10-16T00:26:24;5.20;;;3.80;;
4391;SDS011;2210;51.938;8.488;2022-10-16T00:30:28;4.10;;;3.70;;
4391;SDS011;2210;51.938;8.488;2022-10-16T00:34:28;4.57;;;3.93;;
4391;SDS011;2210;51.938;8.488;2022-10-16T00:38:29;3.90;;;3.50;;
4391;SDS011;2210;51.938;8.488;2022-10-16T00:42:29;4.30;;;3.90;;
4391;SDS011;2210;51.938;8.488;2022-10-16T00:46:39;6.10;;;3.67;;
4391;SDS011;2210;51.938;8.488;2022-10-16T00:50:41;6.23;;;3.10;;
4391;SDS011;2210;51.938;8.488;2022-10-16T00:54:43;4.77;;;3.20;;
4391;SDS011;2210;51.938;8.488;2022-10-16T00:58:45;3.90;;;3.50;;
4391;SDS011;2210;51.938;8.488;2022-10-16T01:02:53;6.57;;;3.33;;
4391;SDS011;2210;51.938;8.488;2022-10-16T01:07:12;5.27;;;3.50;;
4391;SDS011;2210;51.938;8.488;2022-10-16T01:11:33;3.20;;;2.90;;
4391;SDS011;2210;51.938;8.488;2022-10-16T01:20:29;7.10;;;3.33;;
4391;SDS011;2210;51.938;8.488;2022-10-16T01:24:55;4.53;;;2.90;;
4391;SDS011;2210;51.938;8.488;2022-10-16T01:29:07;14.13;;;3.70;;
4391;SDS011;2210;51.938;8.488;2022-10-16T01:33:14;9.13;;;3.80;;
4391;SDS011;2210;51.938;8.488;2022-10-16T01:37:31;4.97;;;3.30;;
4391;SDS011;2210;51.938;8.488;2022-10-16T01:41:38;4.20;;;3.30;;
4391;SDS011;2210;51.938;8.488;2022-10-16T01:45:44;4.73;;;3.67;;
4391;SDS011;2210;51.938;8.488;2022-10-16T01:49:45;5.50;;;3.43;;
4391;SDS011;2210;51.938;8.488;2022-10-16T01:53:48;6.80;;;3.40;;
4391;SDS011;2210;51.938;8.488;2022-10-16T01:57:51;7.70;;;3.43;;
4391;SDS011;2210;51.938;8.488;2022-10-16T02:01:55;3.70;;;3.40;;
4391;SDS011;2210;51.938;8.488;2022-10-16T02:05:59;9.20;;;3.23;;
4391;SDS011;2210;51.938;8.488;2022-10-16T02:10:00;3.50;;;2.90;;
4391;SDS011;2210;51.938;8.488;2022-10-16T02:14:04;3.30;;;3.00;;
4391;SDS011;2210;51.938;8.488;2022-10-16T02:18:06;4.13;;;2.70;;
4391;SDS011;2210;51.938;8.488;2022-10-16T02:22:09;3.63;;;2.80;;
4391;SDS011;2210;51.938;8.488;2022-10-16T02:26:16;3.50;;;3.20;;
4391;SDS011;2210;51.938;8.488;2022-10-16T02:30:30;3.17;;;2.57;;
4391;SDS011;2210;51.938;8.488;2022-10-16T02:34:36;4.13;;;2.93;;
4391;SDS011;2210;51.938;8.488;2022-10-16T02:38:38;4.53;;;3.33;;
4391;SDS011;2210;51.938;8.488;2022-10-16T02:42:40;6.83;;;3.10;;
4391;SDS011;2210;51.938;8.488;2022-10-16T02:46:41;2.70;;;2.50;;
4391;SDS011;2210;51.938;8.488;2022-10-16T02:50:41;4.67;;;2.87;;
4391;SDS011;2210;51.938;8.488;2022-10-16T02:54:41;8.23;;;3.37;;
4391;SDS011;2210;51.938;8.488;2022-10-16T02:58:42;4.10;;;3.30;;
4391;SDS011;2210;51.938;8.488;2022-10-16T03:02:42;5.80;;;3.00;;
4391;SDS011;2210;51.938;8.488;2022-10-16T03:06:43;3.77;;;3.00;;
4391;SDS011;2210;51.938;8.488;2022-10-16T03:10:43;7.13;;;3.10;;
4391;SDS011;2210;51.938;8.488;2022-10-16T03:14:44;3.23;;;2.93;;
4391;SDS011;2210;51.938;8.488;2022-10-16T03:18:47;7.70;;;3.70;;
4391;SDS011;2210;51.938;8.488;2022-10-16T03:22:48;9.63;;;2.83;;
4391;SDS011;2210;51.938;8.488;2022-10-16T03:26:48;4.63;;;2.80;;
4391;SDS011;2210;51.938;8.488;2022-10-16T03:30:49;3.20;;;2.90;;
4391;SDS011;2210;51.938;8.488;2022-10-16T03:34:49;2.83;;;2.60;;
4391;SDS011;2210;51.938;8.488;2022-10-16T03:38:49;3.50;;;2.57;;
4391;SDS011;2210;51.938;8.488;2022-10-16T03:42:49;2.80;;;2.60;;
4391;SDS011;2210;51.938;8.488;2022-10-16T03:46:50;9.73;;;2.93;;
4391;SDS011;2210;51.938;8.488;2022-10-16T03:50:50;3.90;;;3.30;;
4391;SDS011;2210;51.938;8.488;2022-10-16T03:54:51;3.47;;;2.87;;
4391;SDS011;2210;51.938;8.488;2022-10-16T03:58:51;4.50;;;2.63;;
4391;SDS011;2210;51.938;8.488;2022-10-16T04:02:52;2.67;;;2.47;;
4391;SDS011;2210;51.938;8.488;2022-10-16T04:06:52;3.07;;;2.50;;
4391;SDS011;2210;51.938;8.488;2022-10-16T04:10:52;5.73;;;2.50;;
4391;SDS011;2210;51.938;8.488;2022-10-16T04:14:53;3.03;;;2.17;;
4391;SDS011;2210;51.938;8.488;2022-10-16T04:18:53;4.18;;;2.10;;
4391;SDS011;2210;51.938;8.488;2022-10-16T04:22:53;3.40;;;2.07;;
4391;SDS011;2210;51.938;8.488;2022-10-16T04:26:53;7.22;;;1.88;;
4391;SDS011;2210;51.938;8.488;2022-10-16T04:30:54;3.10;;;2.20;;
4391;SDS011;2210;51.938;8.488;2022-10-16T04:34:54;4.10;;;2.17;;
4391;SDS011;2210;51.938;8.488;2022-10-16T04:38:54;4.30;;;2.00;;
4391;SDS011;2210;51.938;8.488;2022-10-16T04:42:55;2.80;;;2.43;;
4391;SDS011;2210;51.938;8.488;2022-10-16T04:46:55;3.10;;;1.90;;
4391;SDS011;2210;51.938;8.488;2022-10-16T04:50:55;4.03;;;1.87;;
4391;SDS011;2210;51.938;8.488;2022-10-16T04:54:55;2.50;;;2.20;;
4391;SDS011;2210;51.938;8.488;2022-10-16T04:59:00;4.50;;;1.80;;
4391;SDS011;2210;51.938;8.488;2022-10-16T05:03:00;2.60;;;1.67;;
4391;SDS011;2210;51.938;8.488;2022-10-16T05:07:01;1.70;;;1.60;;
4391;SDS011;2210;51.938;8.488;2022-10-16T05:11:01;3.37;;;1.60;;
4391;SDS011;2210;51.938;8.488;2022-10-16T05:15:02;1.67;;;1.53;;
4391;SDS011;2210;51.938;8.488;2022-10-16T05:19:03;2.20;;;2.10;;
4391;SDS011;2210;51.938;8.488;2022-10-16T05:23:03;2.10;;;1.80;;
4391;SDS011;2210;51.938;8.488;2022-10-16T05:27:03;2.70;;;1.90;;
4391;SDS011;2210;51.938;8.488;2022-10-16T05:31:07;1.63;;;1.50;;
4391;SDS011;2210;51.938;8.488;2022-10-16T05:35:09;3.93;;;1.93;;
4391;SDS011;2210;51.938;8.488;2022-10-16T05:39:09;3.23;;;1.60;;
4391;SDS011;2210;51.938;8.488;2022-10-16T05:43:09;3.00;;;1.30;;
4391;SDS011;2210;51.938;8.488;2022-10-16T05:47:10;2.17;;;1.40;;
4391;SDS011;2210;51.938;8.488;2022-10-16T05:51:12;1.70;;;1.60;;
4391;SDS011;2210;51.938;8.488;2022-10-16T05:55:13;2.50;;;1.57;;
4391;SDS011;2210;51.938;8.488;2022-10-16T05:59:14;1.43;;;1.33;;
4391;SDS011;2210;51.938;8.488;2022-10-16T06:03:14;2.40;;;1.63;;
4391;SDS011;2210;51.938;8.488;2022-10-16T06:07:14;2.97;;;1.60;;
4391;SDS011;2210;51.938;8.488;2022-10-16T06:11:22;1.77;;;1.67;;
4391;SDS011;2210;51.938;8.488;2022-10-16T06:15:24;2.47;;;1.70;;
4391;SDS011;2210;51.938;8.488;2022-10-16T06:19:24;1.80;;;1.70;;
4391;SDS011;2210;51.938;8.488;2022-10-16T06:23:25;1.50;;;1.40;;
4391;SDS011;2210;51.938;8.488;2022-10-16T06:27:25;1.80;;;1.70;;
4391;SDS011;2210;51.938;8.488;2022-10-16T06:31:26;3.70;;;1.90;;
4391;SDS011;2210;51.938;8.488;2022-10-16T06:35:30;2.13;;;1.80;;
4391;SDS011;2210;51.938;8.488;2022-10-16T06:39:31;1.60;;;1.50;;
4391;SDS011;2210;51.938;8.488;2022-10-16T06:43:32;1.60;;;1.50;;
4391;SDS011;2210;51.938;8.488;2022-10-16T06:47:35;1.93;;;1.73;;
4391;SDS011;2210;51.938;8.488;2022-10-16T06:51:35;3.80;;;1.83;;
4391;SDS011;2210;51.938;8.488;2022-10-16T06:55:40;3.67;;;2.07;;
4391;SDS011;2210;51.938;8.488;2022-10-16T06:59:40;5.97;;;1.90;;
4391;SDS011;2210;51.938;8.488;2022-10-16T07:03:41;1.80;;;1.40;;
4391;SDS011;2210;51.938;8.488;2022-10-16T07:07:42;3.23;;;1.97;;
4391;SDS011;2210;51.938;8.488;2022-10-16T07:11:43;5.13;;;1.57;;
4391;SDS011;2210;51.938;8.488;2022-10-16T07:15:43;3.83;;;1.57;;
4391;SDS011;2210;51.938;8.488;2022-10-16T07:19:44;2.43;;;1.60;;
4391;SDS011;2210;51.938;8.488;2022-10-16T07:23:44;3.17;;;1.80;;
4391;SDS011;2210;51.938;8.488;2022-10-16T07:27:45;2.20;;;1.60;;
4391;SDS011;2210;51.938;8.488;2022-10-16T07:31:45;1.57;;;1.47;;
4391;SDS011;2210;51.938;8.488;2022-10-16T07:35:47;8.53;;;2.20;;
4391;SDS011;2210;51.938;8.488;2022-10-16T07:39:51;1.40;;;1.30;;
4391;SDS011;2210;51.938;8.488;2022-10-16T07:43:52;2.17;;;1.97;;
4391;SDS011;2210;51.938;8.488;2022-10-16T07:47:53;1.70;;;1.60;;
4391;SDS011;2210;51.938;8.488;2022-10-16T07:51:53;2.73;;;1.27;;
4391;SDS011;2210;51.938;8.488;2022-10-16T07:56:00;2.20;;;1.23;;
4391;SDS011;2210;51.938;8.488;2022-10-16T08:00:02;1.17;;;1.17;;
4391;SDS011;2210;51.938;8.488;2022-10-16T08:04:03;1.53;;;1.43;;
4391;SDS011;2210;51.938;8.488;2022-10-16T08:08:03;1.77;;;1.50;;
4391;SDS011;2210;51.938;8.488;2022-10-16T08:12:03;2.50;;;1.17;;
4391;SDS011;2210;51.938;8.488;2022-10-16T08:16:04;1.43;;;1.33;;
4391;SDS011;2210;51.938;8.488;2022-10-16T08:20:07;1.37;;;1.27;;
4391;SDS011;2210;51.938;8.488;2022-10-16T08:24:08;0.93;;;0.90;;
4391;SDS011;2210;51.938;8.488;2022-10-16T08:28:09;2.20;;;1.10;;
4391;SDS011;2210;51.938;8.488;2022-10-16T08:32:10;1.00;;;0.90;;
4391;SDS011;2210;51.938;8.488;2022-10-16T08:36:11;2.23;;;1.23;;
4391;SDS011;2210;51.938;8.488;2022-10-16T08:40:22;1.77;;;1.37;;
4391;SDS011;2210;51.938;8.488;2022-10-16T08:44:35;1.23;;;0.90;;
4391;SDS011;2210;51.938;8.488;2022-10-16T08:48:43;3.40;;;1.33;;
4391;SDS011;2210;51.938;8.488;2022-10-16T08:52:49;2.40;;;1.30;;
4391;SDS011;2210;51.938;8.488;2022-10-16T08:56:49;1.60;;;1.23;;
4391;SDS011;2210;51.938;8.488;2022-10-16T09:00:51;2.03;;;1.17;;
4391;SDS011;2210;51.938;8.488;2022-10-16T09:22:10;1.80;;;1.10;;
4391;SDS011;2210;51.938;8.488;2022-10-16T09:26:14;4.53;;;1.40;;
4391;SDS011;2210;51.938;8.488;2022-10-16T09:30:18;3.30;;;1.27;;
4391;SDS011;2210;51.938;8.488;2022-10-16T09:34:29;2.13;;;0.90;;
4391;SDS011;2210;51.938;8.488;2022-10-16T09:38:33;2.70;;;1.30;;
4391;SDS011;2210;51.938;8.488;2022-10-16T09:42:36;3.87;;;1.30;;
4391;SDS011;2210;51.938;8.488;2022-10-16T09:46:37;1.43;;;1.10;;
4391;SDS011;2210;51.938;8.488;2022-10-16T09:50:39;2.60;;;0.90;;
4391;SDS011;2210;51.938;8.488;2022-10-16T09:54:53;1.97;;;0.87;;
4391;SDS011;2210;51.938;8.488;2022-10-16T09:59:16;1.83;;;1.20;;
4391;SDS011;2210;51.938;8.488;2022-10-16T10:03:33;2.40;;;1.20;;
4391;SDS011;2210;51.938;8.488;2022-10-16T10:07:38;2.40;;;1.27;;
4391;SDS011;2210;51.938;8.488;2022-10-16T10:15:57;2.60;;;1.00;;
4391;SDS011;2210;51.938;8.488;2022-10-16T10:20:23;5.27;;;1.10;;
4391;SDS011;2210;51.938;8.488;2022-10-16T10:24:27;3.27;;;1.40;;
4391;SDS011;2210;51.938;8.488;2022-10-16T10:37:22;1.93;;;1.10;;
4391;SDS011;2210;51.938;8.488;2022-10-16T10:46:14;1.60;;;0.87;;
4391;SDS011;2210;51.938;8.488;2022-10-16T10:50:43;2.97;;;1.03;;
4391;SDS011;2210;51.938;8.488;2022-10-16T10:54:51;0.90;;;0.90;;
4391;SDS011;2210;51.938;8.488;2022-10-16T11:12:11;1.57;;;1.10;;
4391;SDS011;2210;51.938;8.488;2022-10-16T11:16:26;4.10;;;0.90;;
4391;SDS011;2210;51.938;8.488;2022-10-16T11:20:32;1.90;;;0.90;;
4391;SDS011;2210;51.938;8.488;2022-10-16T11:28:45;1.00;;;0.90;;
4391;SDS011;2210;51.938;8.488;2022-10-16T11:37:24;1.80;;;1.00;;
4391;SDS011;2210;51.938;8.488;2022-10-16T11:41:48;6.33;;;1.10;;
4391;SDS011;2210;51.938;8.488;2022-10-16T11:45:52;5.33;;;1.07;;
4391;SDS011;2210;51.938;8.488;2022-10-16T11:49:57;3.03;;;1.00;;
4391;SDS011;2210;51.938;8.488;2022-10-16T12:02:48;3.60;;;1.10;;
4391;SDS011;2210;51.938;8.488;2022-10-16T12:11:05;2.50;;;1.07;;
4391;SDS011;2210;51.938;8.488;2022-10-16T12:15:28;1.73;;;0.90;;
4391;SDS011;2210;51.938;8.488;2022-10-16T12:19:30;2.00;;;1.00;;
4391;SDS011;2210;51.938;8.488;2022-10-16T12:23:38;3.03;;;1.07;;
4391;SDS011;2210;51.938;8.488;2022-10-16T12:27:53;3.20;;;1.20;;
4391;SDS011;2210;51.938;8.488;2022-10-16T12:31:55;2.50;;;0.80;;
4391;SDS011;2210;51.938;8.488;2022-10-16T12:35:56;1.93;;;1.17;;
4391;SDS011;2210;51.938;8.488;2022-10-16T12:39:58;2.20;;;1.20;;
4391;SDS011;2210;51.938;8.488;2022-10-16T12:44:00;1.40;;;0.90;;
4391;SDS011;2210;51.938;8.488;2022-10-16T12:48:02;1.00;;;0.77;;
4391;SDS011;2210;51.938;8.488;2022-10-16T12:52:04;1.37;;;0.87;;
4391;SDS011;2210;51.938;8.488;2022-10-16T12:56:50;2.67;;;1.00;;
4391;SDS011;2210;51.938;8.488;2022-10-16T13:01:22;4.83;;;1.13;;
4391;SDS011;2210;51.938;8.488;2022-10-16T13:14:53;0.97;;;0.70;;
4391;SDS011;2210;51.938;8.488;2022-10-16T13:19:01;1.63;;;1.17;;
4391;SDS011;2210;51.938;8.488;2022-10-16T13:23:25;1.37;;;1.00;;
4391;SDS011;2210;51.938;8.488;2022-10-16T13:31:45;1.20;;;0.90;;
4391;SDS011;2210;51.938;8.488;2022-10-16T13:35:48;5.10;;;0.90;;
4391;SDS011;2210;51.938;8.488;2022-10-16T13:39:50;2.40;;;0.70;;
4391;SDS011;2210;51.938;8.488;2022-10-16T13:43:51;2.20;;;0.90;;
4391;SDS011;2210;51.938;8.488;2022-10-16T13:48:06;5.20;;;1.00;;
4391;SDS011;2210;51.938;8.488;2022-10-16T13:52:16;1.43;;;0.97;;
4391;SDS011;2210;51.938;8.488;2022-10-16T13:56:21;1.00;;;0.90;;
4391;SDS011;2210;51.938;8.488;2022-10-16T14:00:24;1.97;;;1.17;;
4391;SDS011;2210;51.938;8.488;2022-10-16T14:04:31;1.50;;;0.90;;
4391;SDS011;2210;51.938;8.488;2022-10-16T14:08:32;1.93;;;0.87;;
4391;SDS011;2210;51.938;8.488;2022-10-16T14:12:33;2.70;;;1.00;;
4391;SDS011;2210;51.938;8.488;2022-10-16T14:16:34;3.23;;;0.90;;
4391;SDS011;2210;51.938;8.488;2022-10-16T14:20:34;2.13;;;1.10;;
4391;SDS011;2210;51.938;8.488;2022-10-16T14:24:35;1.67;;;1.10;;
4391;SDS011;2210;51.938;8.488;2022-10-16T14:28:38;2.30;;;0.80;;
4391;SDS011;2210;51.938;8.488;2022-10-16T14:32:41;1.57;;;1.13;;
4391;SDS011;2210;51.938;8.488;2022-10-16T14:36:42;2.30;;;0.83;;
4391;SDS011;2210;51.938;8.488;2022-10-16T14:40:45;2.00;;;0.70;;
4391;SDS011;2210;51.938;8.488;2022-10-16T14:44:48;2.57;;;0.83;;
4391;SDS011;2210;51.938;8.488;2022-10-16T14:48:54;2.20;;;1.10;;
4391;SDS011;2210;51.938;8.488;2022-10-16T14:53:00;2.40;;;0.80;;
4391;SDS011;2210;51.938;8.488;2022-10-16T14:57:00;1.63;;;0.80;;
4391;SDS011;2210;51.938;8.488;2022-10-16T15:01:01;1.30;;;0.87;;
4391;SDS011;2210;51.938;8.488;2022-10-16T15:05:07;1.97;;;1.03;;
4391;SDS011;2210;51.938;8.488;2022-10-16T15:09:12;2.10;;;1.10;;
4391;SDS011;2210;51.938;8.488;2022-10-16T15:13:13;1.57;;;1.10;;
4391;SDS011;2210;51.938;8.488;2022-10-16T15:17:14;1.90;;;1.30;;
4391;SDS011;2210;51.938;8.488;2022-10-16T15:21:32;1.00;;;0.90;;
4391;SDS011;2210;51.938;8.488;2022-10-16T15:25:43;1.47;;;1.00;;
4391;SDS011;2210;51.938;8.488;2022-10-16T15:29:50;2.50;;;0.70;;
4391;SDS011;2210;51.938;8.488;2022-10-16T15:33:51;1.20;;;0.80;;
4391;SDS011;2210;51.938;8.488;2022-10-16T15:37:54;1.10;;;0.77;;
4391;SDS011;2210;51.938;8.488;2022-10-16T15:41:54;0.90;;;0.80;;
4391;SDS011;2210;51.938;8.488;2022-10-16T15:46:02;1.47;;;0.80;;
4391;SDS011;2210;51.938;8.488;2022-10-16T15:50:04;1.37;;;0.90;;
4391;SDS011;2210;51.938;8.488;2022-10-16T15:54:05;3.13;;;0.90;;
4391;SDS011;2210;51.938;8.488;2022-10-16T15:58:05;4.00;;;1.30;;
4391;SDS011;2210;51.938;8.488;2022-10-16T16:02:05;1.67;;;1.17;;
4391;SDS011;2210;51.938;8.488;2022-10-16T16:06:07;3.60;;;1.67;;
4391;SDS011;2210;51.938;8.488;2022-10-16T16:10:09;3.77;;;1.50;;
4391;SDS011;2210;51.938;8.488;2022-10-16T16:14:14;4.07;;;1.83;;
4391;SDS011;2210;51.938;8.488;2022-10-16T16:18:15;2.10;;;1.90;;
4391;SDS011;2210;51.938;8.488;2022-10-16T16:22:15;3.33;;;1.20;;
4391;SDS011;2210;51.938;8.488;2022-10-16T16:26:23;6.30;;;5.70;;
4391;SDS011;2210;51.938;8.488;2022-10-16T16:30:27;7.80;;;4.97;;
4391;SDS011;2210;51.938;8.488;2022-10-16T16:34:28;4.40;;;4.00;;
4391;SDS011;2210;51.938;8.488;2022-10-16T16:38:29;7.10;;;4.50;;
4391;SDS011;2210;51.938;8.488;2022-10-16T16:42:29;4.00;;;3.53;;
4391;SDS011;2210;51.938;8.488;2022-10-16T16:46:30;6.53;;;5.83;;
4391;SDS011;2210;51.938;8.488;2022-10-16T16:50:35;3.63;;;3.33;;
4391;SDS011;2210;51.938;8.488;2022-10-16T16:54:36;1.60;;;1.33;;
4391;SDS011;2210;51.938;8.488;2022-10-16T16:58:36;2.20;;;2.00;;
4391;SDS011;2210;51.938;8.488;2022-10-16T17:02:36;2.57;;;1.50;;
4391;SDS011;2210;51.938;8.488;2022-10-16T17:06:37;4.23;;;1.30;;
4391;SDS011;2210;51.938;8.488;2022-10-16T17:10:43;6.37;;;1.60;;
4391;SDS011;2210;51.938;8.488;2022-10-16T17:14:44;1.83;;;1.70;;
4391;SDS011;2210;51.938;8.488;2022-10-16T17:18:44;2.50;;;1.80;;
4391;SDS011;2210;51.938;8.488;2022-10-16T17:22:44;2.53;;;1.67;;
4391;SDS011;2210;51.938;8.488;2022-10-16T17:26:45;3.60;;;1.50;;
4391;SDS011;2210;51.938;8.488;2022-10-16T17:30:47;5.20;;;1.40;;
4391;SDS011;2210;51.938;8.488;2022-10-16T17:34:48;5.57;;;1.50;;
4391;SDS011;2210;51.938;8.488;2022-10-16T17:38:48;3.33;;;1.20;;
4391;SDS011;2210;51.938;8.488;2022-10-16T17:42:49;2.60;;;1.70;;
4391;SDS011;2210;51.938;8.488;2022-10-16T17:46:50;8.93;;;1.50;;
4391;SDS011;2210;51.938;8.488;2022-10-16T17:50:52;2.20;;;1.80;;
4391;SDS011;2210;51.938;8.488;2022-10-16T17:54:52;8.77;;;6.00;;
4391;SDS011;2210;51.938;8.488;2022-10-16T17:58:53;3.45;;;2.58;;
4391;SDS011;2210;51.938;8.488;2022-10-16T18:02:54;8.07;;;2.10;;
4391;SDS011;2210;51.938;8.488;2022-10-16T18:06:55;3.20;;;1.80;;
4391;SDS011;2210;51.938;8.488;2022-10-16T18:10:55;2.60;;;1.90;;
4391;SDS011;2210;51.938;8.488;2022-10-16T18:14:56;3.57;;;1.67;;
4391;SDS011;2210;51.938;8.488;2022-10-16T18:18:57;3.17;;;1.80;;
4391;SDS011;2210;51.938;8.488;2022-10-16T18:22:58;3.63;;;1.80;;
4391;SDS011;2210;51.938;8.488;2022-10-16T18:26:58;4.20;;;2.03;;
4391;SDS011;2210;51.938;8.488;2022-10-16T18:31:00;3.80;;;2.40;;
4391;SDS011;2210;51.938;8.488;2022-10-16T18:35:02;4.50;;;2.80;;
4391;SDS011;2210;51.938;8.488;2022-10-16T18:39:03;5.17;;;3.33;;
4391;SDS011;2210;51.938;8.488;2022-10-16T18:43:08;5.83;;;3.50;;
4391;SDS011;2210;51.938;8.488;2022-10-16T18:47:08;5.70;;;2.97;;
4391;SDS011;2210;51.938;8.488;2022-10-16T18:51:14;4.57;;;2.90;;
4391;SDS011;2210;51.938;8.488;2022-10-16T18:55:14;5.47;;;3.90;;
4391;SDS011;2210;51.938;8.488;2022-10-16T18:59:15;3.60;;;2.80;;
4391;SDS011;2210;51.938;8.488;2022-10-16T19:03:15;5.60;;;3.20;;
4391;SDS011;2210;51.938;8.488;2022-10-16T19:07:17;4.73;;;2.10;;
4391;SDS011;2210;51.938;8.488;2022-10-16T19:11:18;2.50;;;1.50;;
4391;SDS011;2210;51.938;8.488;2022-10-16T19:15:20;2.57;;;1.70;;
4391;SDS011;2210;51.938;8.488;2022-10-16T19:19:21;4.13;;;2.00;;
4391;SDS011;2210;51.938;8.488;2022-10-16T19:23:22;2.87;;;1.67;;
4391;SDS011;2210;51.938;8.488;2022-10-16T19:27:23;1.80;;;1.70;;
4391;SDS011;2210;51.938;8.488;2022-10-16T19:31:23;6.10;;;1.80;;
4391;SDS011;2210;51.938;8.488;2022-10-16T19:35:25;3.43;;;1.83;;
4391;SDS011;2210;51.938;8.488;2022-10-16T19:39:25;5.80;;;1.50;;
4391;SDS011;2210;51.938;8.488;2022-10-16T19:43:26;3.07;;;1.70;;
4391;SDS011;2210;51.938;8.488;2022-10-16T19:47:26;2.53;;;1.43;;
4391;SDS011;2210;51.938;8.488;2022-10-16T19:51:27;2.90;;;1.50;;
4391;SDS011;2210;51.938;8.488;2022-10-16T19:55:29;3.80;;;1.63;;
4391;SDS011;2210;51.938;8.488;2022-10-16T19:59:30;4.47;;;1.60;;
4391;SDS011;2210;51.938;8.488;2022-10-16T20:03:30;2.20;;;1.50;;
4391;SDS011;2210;51.938;8.488;2022-10-16T20:07:31;2.63;;;1.40;;
4391;SDS011;2210;51.938;8.488;2022-10-16T20:11:32;2.67;;;1.57;;
4391;SDS011;2210;51.938;8.488;2022-10-16T20:15:35;3.43;;;1.17;;
4391;SDS011;2210;51.938;8.488;2022-10-16T20:19:36;1.27;;;1.13;;
4391;SDS011;2210;51.938;8.488;2022-10-16T20:23:38;5.03;;;1.40;;
4391;SDS011;2210;51.938;8.488;2022-10-16T20:27:38;2.30;;;1.30;;
4391;SDS011;2210;51.938;8.488;2022-10-16T20:31:39;3.73;;;1.30;;
4391;SDS011;2210;51.938;8.488;2022-10-16T20:35:43;2.83;;;1.77;;
4391;SDS011;2210;51.938;8.488;2022-10-16T20:39:45;2.30;;;1.63;;
4391;SDS011;2210;51.938;8.488;2022-10-16T20:43:47;2.53;;;1.50;;
4391;SDS011;2210;51.938;8.488;2022-10-16T20:47:49;1.57;;;1.20;;
4391;SDS011;2210;51.938;8.488;2022-10-16T20:51:49;3.63;;;1.57;;
4391;SDS011;2210;51.938;8.488;2022-10-16T20:55:49;3.70;;;1.33;;
4391;SDS011;2210;51.938;8.488;2022-10-16T20:59:50;8.73;;;1.40;;
4391;SDS011;2210;51.938;8.488;2022-10-16T21:03:55;2.80;;;1.40;;
4391;SDS011;2210;51.938;8.488;2022-10-16T21:07:57;3.00;;;1.37;;
4391;SDS011;2210;51.938;8.488;2022-10-16T21:11:57;2.57;;;1.20;;
4391;SDS011;2210;51.938;8.488;2022-10-16T21:15:57;4.83;;;1.40;;
4391;SDS011;2210;51.938;8.488;2022-10-16T21:19:58;3.80;;;1.20;;
4391;SDS011;2210;51.938;8.488;2022-10-16T21:23:58;3.27;;;1.20;;
4391;SDS011;2210;51.938;8.488;2022-10-16T21:27:59;1.13;;;1.07;;
4391;SDS011;2210;51.938;8.488;2022-10-16T21:31:59;4.90;;;1.27;;
4391;SDS011;2210;51.938;8.488;2022-10-16T21:36:00;8.20;;;1.30;;
4391;SDS011;2210;51.938;8.488;2022-10-16T21:40:00;4.40;;;1.10;;
4391;SDS011;2210;51.938;8.488;2022-10-16T21:44:01;1.73;;;1.30;;
4391;SDS011;2210;51.938;8.488;2022-10-16T21:48:02;1.53;;;1.30;;
4391;SDS011;2210;51.938;8.488;2022-10-16T21:52:03;2.00;;;1.43;;
4391;SDS011;2210;51.938;8.488;2022-10-16T21:56:04;1.67;;;1.53;;
4391;SDS011;2210;51.938;8.488;2022-10-16T22:00:05;3.67;;;1.70;;
4391;SDS011;2210;51.938;8.488;2022-10-16T22:04:08;1.53;;;1.30;;
4391;SDS011;2210;51.938;8.488;2022-10-16T22:13:07;5.40;;;1.80;;
4391;SDS011;2210;51.938;8.488;2022-10-16T22:17:07;2.40;;;1.47;;
4391;SDS011;2210;51.938;8.488;2022-10-16T22:21:08;3.10;;;1.47;;
4391;SDS011;2210;51.938;8.488;2022-10-16T22:25:08;3.57;;;1.80;;
4391;SDS011;2210;51.938;8.488;2022-10-16T22:29:12;3.80;;;1.70;;
4391;SDS011;2210;51.938;8.488;2022-10-16T22:33:13;2.50;;;1.77;;
4391;SDS011;2210;51.938;8.488;2022-10-16T22:37:13;3.70;;;1.93;;
4391;SDS011;2210;51.938;8.488;2022-10-16T22:41:14;7.37;;;2.00;;
4391;SDS011;2210;51.938;8.488;2022-10-16T22:45:14;8.60;;;2.10;;
4391;SDS011;2210;51.938;8.488;2022-10-16T22:49:15;1.57;;;1.47;;
4391;SDS011;2210;51.938;8.488;2022-10-16T22:53:17;3.03;;;2.00;;
4391;SDS011;2210;51.938;8.488;2022-10-16T22:57:17;5.23;;;2.20;;
4391;SDS011;2210;51.938;8.488;2022-10-16T23:01:19;6.93;;;1.33;;
4391;SDS011;2210;51.938;8.488;2022-10-16T23:05:26;2.63;;;1.60;;
4391;SDS011;2210;51.938;8.488;2022-10-16T23:09:26;2.30;;;2.00;;
4391;SDS011;2210;51.938;8.488;2022-10-16T23:13:26;2.33;;;2.00;;
4391;SDS011;2210;51.938;8.488;2022-10-16T23:17:27;2.30;;;2.10;;
4391;SDS011;2210;51.938;8.488;2022-10-16T23:21:28;3.50;;;2.20;;
4391;SDS011;2210;51.938;8.488;2022-10-16T23:25:28;2.30;;;2.10;;
4391;SDS011;2210;51.938;8.488;2022-10-16T23:29:28;3.10;;;2.17;;
4391;SDS011;2210;51.938;8.488;2022-10-16T23:33:29;7.83;;;1.97;;
4391;SDS011;2210;51.938;8.488;2022-10-16T23:37:31;4.10;;;2.43;;
4391;SDS011;2210;51.938;8.488;2022-10-16T23:41:32;4.07;;;2.43;;
4391;SDS011;2210;51.938;8.488;2022-10-16T23:45:32;2.67;;;2.47;;
4391;SDS011;2210;51.938;8.488;2022-10-16T23:49:32;2.30;;;2.10;;
4391;SDS011;2210;51.938;8.488;2022-10-16T23:53:33;5.07;;;2.80;;
4391;SDS011;2210;51.938;8.488;2022-10-16T23:57:33;2.63;;;2.43;;
